sensor_id;sensor_type;location;lat;lon;timestamp;temperature;humidity
12233;DHT22;6179;51.748;8.728;2022-12-18T00:02:41;-7.30;96.10
12233;DHT22;6179;51.748;8.728;2022-12-18T00:08:42;-7.70;96.70
12233;DHT22;6179;51.748;8.728;2022-12-18T00:14:44;-7.30;96.60
12233;DHT22;6179;51.748;8.728;2022-12-18T00:20:45;-7.10;94.40
12233;DHT22;6179;51.748;8.728;2022-12-18T00:26:46;-7.20;94.70
12233;DHT22;6179;51.748;8.728;2022-12-18T00:32:47;-7.30;94.80
12233;DHT22;6179;51.748;8.728;2022-12-18T00:38:48;-7.50;95.30
12233;DHT22;6179;51.748;8.728;2022-12-18T00:44:49;-7.60;96.20
12233;DHT22;6179;51.748;8.728;2022-12-18T00:50:50;-7.80;97.00
12233;DHT22;6179;51.748;8.728;2022-12-18T00:56:51;-7.80;97.30
12233;DHT22;6179;51.748;8.728;2022-12-18T01:02:52;-7.80;98.00
12233;DHT22;6179;51.748;8.728;2022-12-18T01:08:53;-7.90;96.20
12233;DHT22;6179;51.748;8.728;2022-12-18T01:14:54;-8.20;98.30
12233;DHT22;6179;51.748;8.728;2022-12-18T01:20:55;-7.80;97.80
12233;DHT22;6179;51.748;8.728;2022-12-18T01:26:55;-7.70;96.90
12233;DHT22;6179;51.748;8.728;2022-12-18T01:32:57;-7.80;97.20
12233;DHT22;6179;51.748;8.728;2022-12-18T01:39:03;-7.80;97.60
12233;DHT22;6179;51.748;8.728;2022-12-18T01:51:12;-7.70;97.00
12233;DHT22;6179;51.748;8.728;2022-12-18T01:57:13;-7.50;96.70
12233;DHT22;6179;51.748;8.728;2022-12-18T02:03:15;-7.50;97.50
12233;DHT22;6179;51.748;8.728;2022-12-18T02:09:22;-7.40;98.00
12233;DHT22;6179;51.748;8.728;2022-12-18T02:15:40;-7.40;97.40
12233;DHT22;6179;51.748;8.728;2022-12-18T02:22:17;-7.10;96.40
12233;DHT22;6179;51.748;8.728;2022-12-18T02:29:00;-7.40;97.30
12233;DHT22;6179;51.748;8.728;2022-12-18T02:35:07;-7.20;96.80
12233;DHT22;6179;51.748;8.728;2022-12-18T02:41:13;-7.30;98.20
12233;DHT22;6179;51.748;8.728;2022-12-18T02:47:24;-7.30;98.10
12233;DHT22;6179;51.748;8.728;2022-12-18T02:53:58;-7.00;97.40
12233;DHT22;6179;51.748;8.728;2022-12-18T03:00:21;-7.10;98.20
12233;DHT22;6179;51.748;8.728;2022-12-18T03:06:33;-7.00;98.30
12233;DHT22;6179;51.748;8.728;2022-12-18T03:12:43;-7.40;98.30
12233;DHT22;6179;51.748;8.728;2022-12-18T03:18:58;-6.90;98.20
12233;DHT22;6179;51.748;8.728;2022-12-18T03:25:06;-6.90;97.90
12233;DHT22;6179;51.748;8.728;2022-12-18T03:31:11;-6.70;98.30
12233;DHT22;6179;51.748;8.728;2022-12-18T03:37:14;-6.90;98.30
12233;DHT22;6179;51.748;8.728;2022-12-18T03:55:42;-6.70;98.30
12233;DHT22;6179;51.748;8.728;2022-12-18T04:01:49;-6.70;98.30
12233;DHT22;6179;51.748;8.728;2022-12-18T04:07:55;-6.50;98.00
12233;DHT22;6179;51.748;8.728;2022-12-18T04:13:57;-6.50;97.60
12233;DHT22;6179;51.748;8.728;2022-12-18T04:19:59;-6.70;98.20
12233;DHT22;6179;51.748;8.728;2022-12-18T04:26:00;-6.60;98.30
12233;DHT22;6179;51.748;8.728;2022-12-18T04:32:00;-6.30;98.30
12233;DHT22;6179;51.748;8.728;2022-12-18T04:38:01;-6.40;98.30
12233;DHT22;6179;51.748;8.728;2022-12-18T04:44:02;-6.70;98.30
12233;DHT22;6179;51.748;8.728;2022-12-18T04:50:03;-6.50;98.30
12233;DHT22;6179;51.748;8.728;2022-12-18T04:56:23;-6.30;98.30
12233;DHT22;6179;51.748;8.728;2022-12-18T05:02:24;-6.50;98.30
12233;DHT22;6179;51.748;8.728;2022-12-18T05:08:25;-6.30;98.30
12233;DHT22;6179;51.748;8.728;2022-12-18T05:14:25;-6.20;98.30
12233;DHT22;6179;51.748;8.728;2022-12-18T05:20:27;-6.00;96.90
12233;DHT22;6179;51.748;8.728;2022-12-18T05:26:28;-6.00;97.60
12233;DHT22;6179;51.748;8.728;2022-12-18T05:32:29;-6.20;98.00
12233;DHT22;6179;51.748;8.728;2022-12-18T05:38:32;-6.20;97.50
12233;DHT22;6179;51.748;8.728;2022-12-18T05:44:34;-6.40;98.10
12233;DHT22;6179;51.748;8.728;2022-12-18T05:50:36;-6.50;98.30
12233;DHT22;6179;51.748;8.728;2022-12-18T05:56:38;-6.60;98.30
12233;DHT22;6179;51.748;8.728;2022-12-18T06:02:39;-6.40;98.30
12233;DHT22;6179;51.748;8.728;2022-12-18T06:08:39;-6.60;98.30
12233;DHT22;6179;51.748;8.728;2022-12-18T06:14:40;-6.40;98.30
12233;DHT22;6179;51.748;8.728;2022-12-18T06:20:41;-6.40;98.00
12233;DHT22;6179;51.748;8.728;2022-12-18T06:26:42;-6.70;98.30
12233;DHT22;6179;51.748;8.728;2022-12-18T06:32:43;-6.70;98.30
12233;DHT22;6179;51.748;8.728;2022-12-18T06:38:44;-6.70;98.30
12233;DHT22;6179;51.748;8.728;2022-12-18T06:44:44;-6.40;98.30
12233;DHT22;6179;51.748;8.728;2022-12-18T06:50:45;-6.30;98.30
12233;DHT22;6179;51.748;8.728;2022-12-18T06:56:46;-6.50;98.30
12233;DHT22;6179;51.748;8.728;2022-12-18T07:02:47;-6.50;98.30
12233;DHT22;6179;51.748;8.728;2022-12-18T07:08:48;-6.50;98.30
12233;DHT22;6179;51.748;8.728;2022-12-18T07:14:50;-6.30;98.30
12233;DHT22;6179;51.748;8.728;2022-12-18T07:20:51;-6.10;98.30
12233;DHT22;6179;51.748;8.728;2022-12-18T07:26:51;-6.20;98.30
12233;DHT22;6179;51.748;8.728;2022-12-18T07:32:53;-6.00;98.30
12233;DHT22;6179;51.748;8.728;2022-12-18T07:38:53;-5.70;98.30
12233;DHT22;6179;51.748;8.728;2022-12-18T07:44:54;-6.00;98.30
12233;DHT22;6179;51.748;8.728;2022-12-18T07:51:02;-5.90;98.30
12233;DHT22;6179;51.748;8.728;2022-12-18T07:57:05;-5.80;98.30
12233;DHT22;6179;51.748;8.728;2022-12-18T08:03:06;-5.40;98.30
12233;DHT22;6179;51.748;8.728;2022-12-18T08:09:07;-5.50;98.30
12233;DHT22;6179;51.748;8.728;2022-12-18T08:15:09;-5.10;98.30
12233;DHT22;6179;51.748;8.728;2022-12-18T08:21:22;-4.40;98.30
12233;DHT22;6179;51.748;8.728;2022-12-18T08:27:24;-4.20;98.30
12233;DHT22;6179;51.748;8.728;2022-12-18T08:33:25;-4.00;98.30
12233;DHT22;6179;51.748;8.728;2022-12-18T08:39:26;-3.90;98.30
12233;DHT22;6179;51.748;8.728;2022-12-18T08:45:27;-3.70;98.30
12233;DHT22;6179;51.748;8.728;2022-12-18T08:51:28;-3.40;98.00
12233;DHT22;6179;51.748;8.728;2022-12-18T08:57:29;-3.40;97.60
12233;DHT22;6179;51.748;8.728;2022-12-18T09:03:30;-3.10;97.10
12233;DHT22;6179;51.748;8.728;2022-12-18T09:09:31;-3.00;97.40
12233;DHT22;6179;51.748;8.728;2022-12-18T09:15:31;-2.60;95.60
12233;DHT22;6179;51.748;8.728;2022-12-18T09:21:34;-2.60;95.90
12233;DHT22;6179;51.748;8.728;2022-12-18T09:27:39;-2.50;95.70
12233;DHT22;6179;51.748;8.728;2022-12-18T09:33:40;-2.20;94.40
12233;DHT22;6179;51.748;8.728;2022-12-18T09:39:41;-2.30;95.20
12233;DHT22;6179;51.748;8.728;2022-12-18T09:45:45;-2.00;93.70
12233;DHT22;6179;51.748;8.728;2022-12-18T09:52:02;-2.20;94.30
12233;DHT22;6179;51.748;8.728;2022-12-18T10:04:30;-2.00;94.00
12233;DHT22;6179;51.748;8.728;2022-12-18T10:10:43;-1.70;93.60
12233;DHT22;6179;51.748;8.728;2022-12-18T10:24:17;-1.40;90.70
12233;DHT22;6179;51.748;8.728;2022-12-18T10:30:18;-1.20;89.40
12233;DHT22;6179;51.748;8.728;2022-12-18T10:36:23;-1.20;90.40
12233;DHT22;6179;51.748;8.728;2022-12-18T10:42:24;-1.10;91.80
12233;DHT22;6179;51.748;8.728;2022-12-18T10:48:27;-1.10;89.10
12233;DHT22;6179;51.748;8.728;2022-12-18T10:54:29;-1.20;89.20
12233;DHT22;6179;51.748;8.728;2022-12-18T11:00:32;-1.20;90.80
12233;DHT22;6179;51.748;8.728;2022-12-18T11:06:32;-1.20;89.30
12233;DHT22;6179;51.748;8.728;2022-12-18T11:12:33;-1.10;88.90
12233;DHT22;6179;51.748;8.728;2022-12-18T11:18:35;-0.90;88.80
12233;DHT22;6179;51.748;8.728;2022-12-18T11:24:36;-0.90;87.60
12233;DHT22;6179;51.748;8.728;2022-12-18T11:30:37;-0.80;87.80
12233;DHT22;6179;51.748;8.728;2022-12-18T11:36:46;-0.90;87.80
12233;DHT22;6179;51.748;8.728;2022-12-18T11:43:10;-0.80;87.90
12233;DHT22;6179;51.748;8.728;2022-12-18T11:49:24;-0.50;87.00
12233;DHT22;6179;51.748;8.728;2022-12-18T12:14:42;-0.10;84.50
12233;DHT22;6179;51.748;8.728;2022-12-18T12:34:54;-0.20;85.40
12233;DHT22;6179;51.748;8.728;2022-12-18T12:41:24;0.20;82.70
12233;DHT22;6179;51.748;8.728;2022-12-18T12:47:48;0.40;81.80
12233;DHT22;6179;51.748;8.728;2022-12-18T12:53:54;0.40;82.10
12233;DHT22;6179;51.748;8.728;2022-12-18T13:06:10;0.20;83.40
12233;DHT22;6179;51.748;8.728;2022-12-18T13:12:19;0.20;82.10
12233;DHT22;6179;51.748;8.728;2022-12-18T13:18:38;0.30;81.20
12233;DHT22;6179;51.748;8.728;2022-12-18T13:24:57;0.20;82.40
12233;DHT22;6179;51.748;8.728;2022-12-18T13:30:58;0.30;81.30
12233;DHT22;6179;51.748;8.728;2022-12-18T13:43:55;0.10;81.80
12233;DHT22;6179;51.748;8.728;2022-12-18T13:50:00;0.30;80.50
12233;DHT22;6179;51.748;8.728;2022-12-18T13:56:03;0.30;81.30
12233;DHT22;6179;51.748;8.728;2022-12-18T14:02:16;0.30;80.80
12233;DHT22;6179;51.748;8.728;2022-12-18T14:08:21;0.20;81.90
12233;DHT22;6179;51.748;8.728;2022-12-18T14:14:22;0.30;81.10
12233;DHT22;6179;51.748;8.728;2022-12-18T14:20:24;0.00;83.20
12233;DHT22;6179;51.748;8.728;2022-12-18T14:26:29;0.00;82.40
12233;DHT22;6179;51.748;8.728;2022-12-18T14:32:31;-0.30;83.80
12233;DHT22;6179;51.748;8.728;2022-12-18T14:38:34;-0.30;84.50
12233;DHT22;6179;51.748;8.728;2022-12-18T14:44:37;-0.40;85.20
12233;DHT22;6179;51.748;8.728;2022-12-18T14:50:38;-0.50;85.60
12233;DHT22;6179;51.748;8.728;2022-12-18T14:57:19;-0.50;85.70
12233;DHT22;6179;51.748;8.728;2022-12-18T15:03:23;-0.70;86.10
12233;DHT22;6179;51.748;8.728;2022-12-18T15:09:25;-0.60;86.70
12233;DHT22;6179;51.748;8.728;2022-12-18T15:21:33;-0.20;84.90
12233;DHT22;6179;51.748;8.728;2022-12-18T15:27:36;0.10;84.20
12233;DHT22;6179;51.748;8.728;2022-12-18T15:33:42;-0.40;85.20
12233;DHT22;6179;51.748;8.728;2022-12-18T15:39:50;-0.40;84.90
12233;DHT22;6179;51.748;8.728;2022-12-18T15:45:51;-0.20;83.90
12233;DHT22;6179;51.748;8.728;2022-12-18T15:51:58;-0.40;84.90
12233;DHT22;6179;51.748;8.728;2022-12-18T15:58:00;-0.50;85.40
12233;DHT22;6179;51.748;8.728;2022-12-18T16:04:00;-0.50;85.30
12233;DHT22;6179;51.748;8.728;2022-12-18T16:10:01;-0.50;86.00
12233;DHT22;6179;51.748;8.728;2022-12-18T16:16:02;-0.50;85.60
12233;DHT22;6179;51.748;8.728;2022-12-18T16:22:03;-0.60;85.70
12233;DHT22;6179;51.748;8.728;2022-12-18T16:28:04;-0.40;85.70
12233;DHT22;6179;51.748;8.728;2022-12-18T16:34:12;-0.70;86.60
12233;DHT22;6179;51.748;8.728;2022-12-18T16:40:23;-0.60;87.00
12233;DHT22;6179;51.748;8.728;2022-12-18T16:46:25;-0.60;86.60
12233;DHT22;6179;51.748;8.728;2022-12-18T16:52:26;-0.70;86.80
12233;DHT22;6179;51.748;8.728;2022-12-18T16:58:27;-0.70;86.70
12233;DHT22;6179;51.748;8.728;2022-12-18T17:04:28;-0.90;87.60
12233;DHT22;6179;51.748;8.728;2022-12-18T17:10:29;-0.90;87.80
12233;DHT22;6179;51.748;8.728;2022-12-18T17:16:30;-1.10;88.60
12233;DHT22;6179;51.748;8.728;2022-12-18T17:22:31;-1.00;88.60
12233;DHT22;6179;51.748;8.728;2022-12-18T17:28:31;-1.10;89.20
12233;DHT22;6179;51.748;8.728;2022-12-18T17:34:33;-0.90;87.70
12233;DHT22;6179;51.748;8.728;2022-12-18T17:40:34;-1.10;88.30
12233;DHT22;6179;51.748;8.728;2022-12-18T17:46:35;-1.20;88.90
12233;DHT22;6179;51.748;8.728;2022-12-18T17:52:36;-1.10;87.90
12233;DHT22;6179;51.748;8.728;2022-12-18T17:58:37;-1.20;88.00
12233;DHT22;6179;51.748;8.728;2022-12-18T18:04:38;-1.20;88.40
12233;DHT22;6179;51.748;8.728;2022-12-18T18:10:39;-1.40;88.60
12233;DHT22;6179;51.748;8.728;2022-12-18T18:16:42;-1.20;88.40
12233;DHT22;6179;51.748;8.728;2022-12-18T18:22:45;-1.40;89.00
12233;DHT22;6179;51.748;8.728;2022-12-18T18:28:45;-1.20;89.30
12233;DHT22;6179;51.748;8.728;2022-12-18T18:34:46;-1.20;89.40
12233;DHT22;6179;51.748;8.728;2022-12-18T18:40:47;-1.10;89.20
12233;DHT22;6179;51.748;8.728;2022-12-18T18:46:48;-1.00;89.20
12233;DHT22;6179;51.748;8.728;2022-12-18T18:52:49;-1.10;89.60
12233;DHT22;6179;51.748;8.728;2022-12-18T18:58:49;-1.40;90.40
12233;DHT22;6179;51.748;8.728;2022-12-18T19:04:51;-1.40;91.30
12233;DHT22;6179;51.748;8.728;2022-12-18T19:10:53;-1.30;90.90
12233;DHT22;6179;51.748;8.728;2022-12-18T19:16:55;-1.30;91.30
12233;DHT22;6179;51.748;8.728;2022-12-18T19:22:56;-1.40;91.40
12233;DHT22;6179;51.748;8.728;2022-12-18T19:29:05;-1.40;91.40
12233;DHT22;6179;51.748;8.728;2022-12-18T19:35:07;-1.50;92.20
12233;DHT22;6179;51.748;8.728;2022-12-18T19:41:08;-1.60;92.40
12233;DHT22;6179;51.748;8.728;2022-12-18T19:47:09;-1.40;92.20
12233;DHT22;6179;51.748;8.728;2022-12-18T19:53:10;-1.40;92.70
12233;DHT22;6179;51.748;8.728;2022-12-18T19:59:11;-1.50;93.40
12233;DHT22;6179;51.748;8.728;2022-12-18T20:05:12;-1.40;93.20
12233;DHT22;6179;51.748;8.728;2022-12-18T20:11:13;-1.30;93.80
12233;DHT22;6179;51.748;8.728;2022-12-18T20:17:14;-1.10;93.60
12233;DHT22;6179;51.748;8.728;2022-12-18T20:23:15;-0.90;92.30
12233;DHT22;6179;51.748;8.728;2022-12-18T20:29:16;-1.10;93.60
12233;DHT22;6179;51.748;8.728;2022-12-18T20:35:17;-1.10;93.70
12233;DHT22;6179;51.748;8.728;2022-12-18T20:41:20;-1.10;93.70
12233;DHT22;6179;51.748;8.728;2022-12-18T20:47:22;-1.20;94.60
12233;DHT22;6179;51.748;8.728;2022-12-18T20:53:22;-1.20;94.50
12233;DHT22;6179;51.748;8.728;2022-12-18T20:59:24;-1.10;94.00
12233;DHT22;6179;51.748;8.728;2022-12-18T21:05:25;-1.20;95.40
12233;DHT22;6179;51.748;8.728;2022-12-18T21:11:30;-1.40;95.80
12233;DHT22;6179;51.748;8.728;2022-12-18T21:17:50;-1.20;95.40
12233;DHT22;6179;51.748;8.728;2022-12-18T21:23:51;-1.20;95.50
12233;DHT22;6179;51.748;8.728;2022-12-18T21:29:52;-1.30;96.10
12233;DHT22;6179;51.748;8.728;2022-12-18T21:35:53;-1.30;96.50
12233;DHT22;6179;51.748;8.728;2022-12-18T21:41:54;-1.30;96.70
12233;DHT22;6179;51.748;8.728;2022-12-18T21:48:15;-1.20;96.70
12233;DHT22;6179;51.748;8.728;2022-12-18T21:54:16;-1.30;97.10
12233;DHT22;6179;51.748;8.728;2022-12-18T22:00:17;-1.00;96.60
12233;DHT22;6179;51.748;8.728;2022-12-18T22:06:18;-0.60;95.00
12233;DHT22;6179;51.748;8.728;2022-12-18T22:12:19;-0.70;95.80
12233;DHT22;6179;51.748;8.728;2022-12-18T22:18:34;-0.60;95.60
12233;DHT22;6179;51.748;8.728;2022-12-18T22:24:35;-0.70;96.00
12233;DHT22;6179;51.748;8.728;2022-12-18T22:30:36;-0.70;96.30
12233;DHT22;6179;51.748;8.728;2022-12-18T22:36:42;-0.40;95.40
12233;DHT22;6179;51.748;8.728;2022-12-18T22:42:47;-0.20;94.90
12233;DHT22;6179;51.748;8.728;2022-12-18T22:48:48;-0.30;95.40
12233;DHT22;6179;51.748;8.728;2022-12-18T22:54:49;-0.30;97.20
12233;DHT22;6179;51.748;8.728;2022-12-18T23:00:50;-0.10;97.00
12233;DHT22;6179;51.748;8.728;2022-12-18T23:06:51;0.00;96.60
12233;DHT22;6179;51.748;8.728;2022-12-18T23:12:52;0.00;97.90
12233;DHT22;6179;51.748;8.728;2022-12-18T23:18:54;0.10;97.70
12233;DHT22;6179;51.748;8.728;2022-12-18T23:24:55;0.30;98.10
12233;DHT22;6179;51.748;8.728;2022-12-18T23:31:02;0.40;97.90
12233;DHT22;6179;51.748;8.728;2022-12-18T23:37:04;0.50;98.30
12233;DHT22;6179;51.748;8.728;2022-12-18T23:43:06;0.90;97.40
12233;DHT22;6179;51.748;8.728;2022-12-18T23:49:08;1.00;97.40
12233;DHT22;6179;51.748;8.728;2022-12-18T23:55:09;1.10;97.10
